Time;durP1;ratioP1;P1;durP2;ratioP2;P2;SDS_P1;SDS_P2;PMS_P1;PMS_P2;Temp;Humidity;BMP_temperature;BMP_pressure;BME280_temperature;BME280_humidity;BME280_pressure;Samples;Min_cycle;Max_cycle;Signal;HPM_P1;HPM_P2
2021/04/02 00:02:18;;;;;;;8.27;1.65;;;;;;;;;;5019741;28;20045;-57
2021/04/02 00:04:44;;;;;;;10.10;1.80;;;;;;;;;;5039386;28;20118;-58
2021/04/02 00:07:10;;;;;;;10.00;1.95;;;;;;;;;;5019588;28;20045;-61
2021/04/02 00:09:37;;;;;;;6.57;1.88;;;;;;;;;;5022913;28;20119;-59
2021/04/02 00:12:04;;;;;;;8.38;1.58;;;;;;;;;;5018729;28;20030;-60
2021/04/02 00:14:30;;;;;;;12.60;1.92;;;;;;;;;;5019908;28;20061;-59
2021/04/02 00:16:55;;;;;;;6.82;1.50;;;;;;;;;;5016354;28;20033;-57
2021/04/02 00:19:21;;;;;;;10.50;2.13;;;;;;;;;;5017540;28;20041;-60
2021/04/02 00:21:47;;;;;;;6.95;1.83;;;;;;;;;;5018126;28;20042;-61
2021/04/02 00:24:14;;;;;;;7.88;1.60;;;;;;;;;;5023686;28;20041;-59
2021/04/02 00:26:42;;;;;;;8.85;2.08;;;;;;;;;;5000679;28;20050;-61
2021/04/02 00:29:11;;;;;;;11.80;1.60;;;;;;;;;;5003507;28;20173;-60
2021/04/02 00:31:39;;;;;;;;;;;;;;;;;;4997922;28;20053;-61
2021/04/02 00:34:07;;;;;;;12.32;1.95;;;;;;;;;;5001161;28;19929;-60
2021/04/02 00:36:33;;;;;;;11.23;1.77;;;;;;;;;;5003184;28;20034;-58
2021/04/02 00:38:59;;;;;;;13.13;1.83;;;;;;;;;;5018171;28;20042;-59
2021/04/02 00:41:25;;;;;;;7.60;1.92;;;;;;;;;;5024046;28;20052;-58
2021/04/02 00:43:52;;;;;;;9.18;1.85;;;;;;;;;;5018657;28;20042;-60
2021/04/02 00:46:19;;;;;;;6.50;1.90;;;;;;;;;;5024233;28;20041;-55
2021/04/02 00:48:46;;;;;;;3.83;1.70;;;;;;;;;;5018049;28;20059;-60
2021/04/02 00:51:13;;;;;;;6.63;1.73;;;;;;;;;;5021240;28;20041;-57
2021/04/02 00:53:41;;;;;;;7.50;1.70;;;;;;;;;;5016877;28;20041;-60
2021/04/02 00:56:08;;;;;;;12.15;2.05;;;;;;;;;;5022124;28;20041;-60
2021/04/02 00:58:35;;;;;;;5.80;1.60;;;;;;;;;;5010206;28;20049;-60
2021/04/02 01:01:02;;;;;;;5.75;1.63;;;;;;;;;;5002671;28;20042;-60
2021/04/02 01:03:29;;;;;;;8.55;1.65;;;;;;;;;;5004020;28;20038;-61
2021/04/02 01:05:56;;;;;;;3.80;1.52;;;;;;;;;;5022126;28;20056;-60
2021/04/02 01:08:23;;;;;;;5.53;1.50;;;;;;;;;;5016129;28;20062;-55
2021/04/02 01:10:50;;;;;;;6.43;1.42;;;;;;;;;;5003142;28;20038;-58
2021/04/02 01:13:17;;;;;;;4.50;1.40;;;;;;;;;;5000844;28;20057;-61
2021/04/02 01:15:44;;;;;;;9.23;1.83;;;;;;;;;;5004571;28;20038;-54
2021/04/02 01:18:13;;;;;;;6.90;1.35;;;;;;;;;;5007045;28;20123;-57
2021/04/02 01:20:38;;;;;;;;;;;;;;;;;;5023531;28;20037;-54
2021/04/02 01:23:07;;;;;;;6.82;1.23;;;;;;;;;;5025108;28;19924;-56
2021/04/02 01:25:33;;;;;;;;;;;;;;;;;;5018175;28;20115;-60
2021/04/02 01:28:16;;;;;;;8.20;1.60;;;;;;;;;;5004132;28;19933;-57
2021/04/02 01:30:44;;;;;;;4.57;1.30;;;;;;;;;;5008691;28;20045;-59
2021/04/02 01:33:11;;;;;;;5.68;1.13;;;;;;;;;;5025420;28;20045;-59
2021/04/02 01:35:38;;;;;;;7.43;1.77;;;;;;;;;;5038885;28;20188;-60
2021/04/02 01:38:07;;;;;;;5.65;1.40;;;;;;;;;;5044692;28;20033;-60
2021/04/02 01:40:35;;;;;;;7.95;1.35;;;;;;;;;;5037785;28;20033;-60
2021/04/02 01:43:05;;;;;;;4.68;1.27;;;;;;;;;;5024538;28;20033;-59
2021/04/02 01:45:32;;;;;;;7.93;1.77;;;;;;;;;;5032007;28;20033;-60
2021/04/02 01:48:00;;;;;;;6.72;1.23;;;;;;;;;;5043263;28;20043;-61
2021/04/02 01:50:25;;;;;;;7.60;1.40;;;;;;;;;;5040680;28;20037;-58
2021/04/02 01:52:52;;;;;;;2.85;1.20;;;;;;;;;;5043835;28;20033;-61
2021/04/02 01:55:18;;;;;;;6.28;1.38;;;;;;;;;;5040203;28;20044;-56
2021/04/02 01:57:46;;;;;;;4.93;1.35;;;;;;;;;;5042837;28;20125;-60
2021/04/02 02:00:15;;;;;;;7.05;1.42;;;;;;;;;;5039243;28;20092;-59
2021/04/02 02:02:41;;;;;;;;;;;;;;;;;;5042185;28;20045;-61
2021/04/02 02:05:09;;;;;;;6.65;1.48;;;;;;;;;;5041984;28;19920;-56
2021/04/02 02:07:36;;;;;;;5.07;1.33;;;;;;;;;;5043396;28;20048;-60
2021/04/02 02:10:03;;;;;;;6.32;1.40;;;;;;;;;;5044645;28;20048;-58
2021/04/02 02:12:30;;;;;;;7.57;1.20;;;;;;;;;;5038739;28;20056;-59
2021/04/02 02:14:56;;;;;;;4.72;1.40;;;;;;;;;;5063010;28;20041;-57
2021/04/02 02:17:24;;;;;;;8.38;1.77;;;;;;;;;;5041366;28;20053;-60
2021/04/02 02:19:50;;;;;;;8.90;1.48;;;;;;;;;;5044492;28;20044;-57
2021/04/02 02:22:18;;;;;;;3.15;1.27;;;;;;;;;;5037648;28;20133;-58
2021/04/02 02:24:45;;;;;;;5.63;1.27;;;;;;;;;;5019516;28;20048;-60
2021/04/02 02:27:11;;;;;;;2.47;0.85;;;;;;;;;;5050370;28;20040;-52
2021/04/02 02:29:38;;;;;;;4.85;0.98;;;;;;;;;;5043581;28;20036;-51
2021/04/02 02:32:04;;;;;;;5.57;1.20;;;;;;;;;;5037246;28;20052;-60
2021/04/02 02:34:30;;;;;;;3.80;1.25;;;;;;;;;;5042600;28;20033;-60
2021/04/02 02:36:57;;;;;;;6.60;1.45;;;;;;;;;;5020427;28;20034;-58
2021/04/02 02:39:24;;;;;;;2.47;1.00;;;;;;;;;;5040976;28;20137;-58
2021/04/02 02:41:50;;;;;;;6.10;1.33;;;;;;;;;;5023266;28;20048;-54
2021/04/02 02:44:17;;;;;;;5.25;1.77;;;;;;;;;;5044906;28;20029;-57
2021/04/02 02:46:43;;;;;;;5.88;1.52;;;;;;;;;;5045349;28;20033;-54
2021/04/02 02:49:10;;;;;;;4.85;1.33;;;;;;;;;;5039157;28;20029;-52
2021/04/02 02:51:37;;;;;;;4.28;1.38;;;;;;;;;;5027175;28;20045;-61
2021/04/02 02:54:05;;;;;;;4.88;1.20;;;;;;;;;;5037415;28;20029;-60
2021/04/02 02:56:34;;;;;;;9.93;1.50;;;;;;;;;;5042170;28;20029;-57
2021/04/02 02:59:01;;;;;;;4.13;1.42;;;;;;;;;;5022912;28;20052;-57
2021/04/02 03:01:28;;;;;;;6.40;1.45;;;;;;;;;;5024202;28;20052;-59
2021/04/02 03:03:54;;;;;;;8.18;1.38;;;;;;;;;;5018174;28;20038;-57
2021/04/02 03:06:21;;;;;;;6.97;1.30;;;;;;;;;;5037503;28;20052;-57
2021/04/02 03:08:49;;;;;;;4.95;1.00;;;;;;;;;;5037558;28;20090;-60
2021/04/02 03:11:17;;;;;;;6.45;1.33;;;;;;;;;;5043188;28;20126;-60
2021/04/02 03:13:44;;;;;;;5.60;1.50;;;;;;;;;;5016005;28;20045;-60
2021/04/02 03:16:11;;;;;;;4.25;1.40;;;;;;;;;;5018381;28;20041;-55
2021/04/02 03:18:37;;;;;;;8.45;1.33;;;;;;;;;;5016982;28;20037;-59
2021/04/02 03:21:05;;;;;;;2.47;1.20;;;;;;;;;;5020707;28;20030;-60
2021/04/02 03:23:31;;;;;;;6.15;1.40;;;;;;;;;;5018892;28;20345;-59
2021/04/02 03:25:58;;;;;;;6.45;1.33;;;;;;;;;;5040045;28;20047;-60
2021/04/02 03:28:24;;;;;;;4.75;1.13;;;;;;;;;;5018524;28;20096;-59
2021/04/02 03:30:51;;;;;;;3.13;1.08;;;;;;;;;;5017809;28;20033;-60
2021/04/02 03:33:21;;;;;;;5.35;1.13;;;;;;;;;;5019964;28;20045;-59
2021/04/02 03:35:48;;;;;;;5.50;1.15;;;;;;;;;;5017566;28;20056;-59
2021/04/02 03:38:16;;;;;;;7.30;1.85;;;;;;;;;;5021118;28;20062;-60
2021/04/02 03:40:42;;;;;;;5.05;1.20;;;;;;;;;;5017844;28;20050;-59
2021/04/02 03:43:09;;;;;;;8.77;1.35;;;;;;;;;;5020880;28;20045;-60
2021/04/02 03:45:38;;;;;;;6.15;1.25;;;;;;;;;;5017998;28;20046;-60
2021/04/02 03:48:06;;;;;;;3.58;1.15;;;;;;;;;;5020646;28;20042;-61
2021/04/02 03:50:34;;;;;;;4.45;1.30;;;;;;;;;;5012239;28;20054;-60
2021/04/02 03:53:04;;;;;;;3.88;1.13;;;;;;;;;;5000277;28;20065;-59
2021/04/02 03:55:30;;;;;;;6.25;1.27;;;;;;;;;;5006554;28;20049;-60
2021/04/02 03:57:58;;;;;;;8.90;1.20;;;;;;;;;;5023834;28;20172;-58
2021/04/02 04:00:26;;;;;;;6.35;1.23;;;;;;;;;;5019113;28;20099;-59
2021/04/02 04:02:53;;;;;;;8.93;1.60;;;;;;;;;;5023449;28;20103;-59
2021/04/02 04:05:20;;;;;;;9.05;1.40;;;;;;;;;;5019513;28;20029;-57
2021/04/02 04:07:47;;;;;;;3.95;1.20;;;;;;;;;;5039796;28;20038;-58
2021/04/02 04:10:14;;;;;;;3.95;1.30;;;;;;;;;;5021223;28;20056;-58
2021/04/02 04:12:41;;;;;;;6.22;1.45;;;;;;;;;;5022665;28;20045;-60
2021/04/02 04:15:08;;;;;;;7.05;1.33;;;;;;;;;;5043320;28;20041;-58
2021/04/02 04:17:35;;;;;;;6.65;1.50;;;;;;;;;;5023577;28;20045;-58
2021/04/02 04:20:02;;;;;;;10.93;1.35;;;;;;;;;;5026944;28;20045;-59
2021/04/02 04:22:31;;;;;;;8.80;1.52;;;;;;;;;;5022953;28;20056;-60
2021/04/02 04:24:57;;;;;;;8.93;1.65;;;;;;;;;;5026867;28;20057;-60
2021/04/02 04:27:25;;;;;;;5.65;1.30;;;;;;;;;;5027769;28;20037;-60
2021/04/02 04:29:51;;;;;;;5.50;1.15;;;;;;;;;;5042337;28;20041;-60
2021/04/02 04:32:20;;;;;;;10.88;1.50;;;;;;;;;;5039007;28;20045;-59
2021/04/02 04:34:48;;;;;;;6.93;1.25;;;;;;;;;;5041607;28;20053;-57
2021/04/02 04:37:15;;;;;;;3.53;1.42;;;;;;;;;;5021984;28;20037;-55
2021/04/02 04:39:43;;;;;;;8.48;1.20;;;;;;;;;;5026452;28;20033;-57
2021/04/02 04:42:11;;;;;;;6.25;1.23;;;;;;;;;;5037556;28;20115;-57
2021/04/02 04:44:38;;;;;;;5.13;1.37;;;;;;;;;;5025294;28;20042;-56
2021/04/02 04:47:05;;;;;;;5.75;0.98;;;;;;;;;;5039108;28;20286;-57
2021/04/02 04:49:31;;;;;;;4.28;1.25;;;;;;;;;;5024566;28;20041;-54
2021/04/02 04:51:57;;;;;;;11.27;1.40;;;;;;;;;;5039161;28;20057;-56
2021/04/02 04:54:26;;;;;;;7.88;1.25;;;;;;;;;;5042604;28;20041;-56
2021/04/02 04:56:54;;;;;;;4.53;1.30;;;;;;;;;;5020847;28;20057;-56
2021/04/02 04:59:20;;;;;;;11.52;1.60;;;;;;;;;;5006107;28;20168;-56
2021/04/02 05:01:48;;;;;;;4.82;1.30;;;;;;;;;;5005982;28;20038;-57
2021/04/02 05:04:17;;;;;;;7.25;1.30;;;;;;;;;;5003958;28;20053;-57
2021/04/02 05:06:42;;;;;;;;;;;;;;;;;;5010718;28;20131;-56
2021/04/02 05:09:09;;;;;;;5.18;1.00;;;;;;;;;;5022134;28;19925;-56
2021/04/02 05:11:37;;;;;;;4.43;1.02;;;;;;;;;;5032076;28;20038;-54
2021/04/02 05:14:05;;;;;;;4.57;1.13;;;;;;;;;;5019342;28;20131;-55
2021/04/02 05:16:32;;;;;;;8.88;1.42;;;;;;;;;;5032033;28;20059;-57
2021/04/02 05:18:59;;;;;;;5.32;1.17;;;;;;;;;;5018863;28;20097;-57
2021/04/02 05:21:25;;;;;;;4.00;0.95;;;;;;;;;;5033237;28;20038;-58
2021/04/02 05:23:52;;;;;;;1.75;1.00;;;;;;;;;;5039990;28;20060;-54
2021/04/02 05:26:18;;;;;;;1.88;1.02;;;;;;;;;;5022299;28;20057;-59
2021/04/02 05:28:44;;;;;;;6.63;1.30;;;;;;;;;;5028024;28;20034;-60
2021/04/02 05:31:11;;;;;;;4.40;1.08;;;;;;;;;;5036547;28;20045;-56
2021/04/02 05:33:39;;;;;;;12.13;1.30;;;;;;;;;;5021403;28;20057;-56
2021/04/02 05:36:05;;;;;;;5.63;1.23;;;;;;;;;;5021974;28;20042;-55
2021/04/02 05:38:31;;;;;;;4.72;1.23;;;;;;;;;;5032348;28;20127;-58
2021/04/02 05:41:00;;;;;;;7.88;1.33;;;;;;;;;;5028653;28;20042;-59
2021/04/02 05:43:31;;;;;;;2.50;0.90;;;;;;;;;;5017968;28;20057;-59
2021/04/02 05:45:59;;;;;;;5.22;1.40;;;;;;;;;;5017910;28;20073;-56
2021/04/02 05:48:25;;;;;;;;;;;;;;;;;;5012544;28;20038;-58
2021/04/02 05:50:54;;;;;;;8.25;1.08;;;;;;;;;;5010368;28;19917;-59
2021/04/02 05:53:21;;;;;;;;;;;;;;;;;;5014953;28;20048;-58
2021/04/02 05:55:49;;;;;;;2.55;0.88;;;;;;;;;;5009213;28;19937;-58
2021/04/02 05:58:15;;;;;;;5.95;1.10;;;;;;;;;;5030457;28;20057;-57
2021/04/02 06:00:41;;;;;;;7.40;1.42;;;;;;;;;;5039543;28;20049;-60
2021/04/02 06:03:10;;;;;;;7.57;1.35;;;;;;;;;;5033809;28;20052;-59
2021/04/02 06:05:36;;;;;;;5.07;1.15;;;;;;;;;;5030832;28;20026;-57
2021/04/02 06:08:03;;;;;;;5.82;1.20;;;;;;;;;;5020180;28;20044;-59
2021/04/02 06:10:29;;;;;;;7.40;1.30;;;;;;;;;;5027768;28;22583;-59
2021/04/02 06:12:56;;;;;;;5.15;1.73;;;;;;;;;;5038328;28;20075;-54
2021/04/02 06:15:22;;;;;;;5.38;1.40;;;;;;;;;;5030596;28;20041;-56
2021/04/02 06:17:58;;;;;;;7.10;1.38;;;;;;;;;;5042039;28;20056;-59
2021/04/02 06:20:24;;;;;;;3.80;0.80;;;;;;;;;;5036094;28;20060;-59
2021/04/02 06:23:02;;;;;;;4.55;0.85;;;;;;;;;;5036259;28;20042;-59
2021/04/02 06:25:28;;;;;;;6.22;1.20;;;;;;;;;;5012253;28;20136;-60
2021/04/02 06:27:54;;;;;;;5.93;1.15;;;;;;;;;;5020846;28;20040;-57
2021/04/02 06:30:22;;;;;;;5.07;0.98;;;;;;;;;;5020605;28;20052;-60
2021/04/02 06:32:51;;;;;;;7.85;1.27;;;;;;;;;;5017320;28;20115;-51
2021/04/02 06:35:17;;;;;;;8.60;1.27;;;;;;;;;;5020973;28;20049;-55
2021/04/02 06:37:45;;;;;;;4.70;1.00;;;;;;;;;;5017042;28;20042;-56
2021/04/02 06:40:15;;;;;;;10.43;1.30;;;;;;;;;;5021528;28;20088;-59
2021/04/02 06:42:43;;;;;;;14.13;1.30;;;;;;;;;;5015923;28;20077;-53
2021/04/02 06:45:09;;;;;;;2.92;0.60;;;;;;;;;;5029994;28;20037;-60
2021/04/02 06:47:36;;;;;;;4.00;1.10;;;;;;;;;;5037028;28;20049;-60
2021/04/02 06:50:13;;;;;;;15.07;1.40;;;;;;;;;;5041365;28;20049;-60
2021/04/02 06:52:39;;;;;;;12.88;1.27;;;;;;;;;;5036366;28;20051;-59
2021/04/02 06:55:06;;;;;;;7.40;0.88;;;;;;;;;;5041803;28;20058;-60
2021/04/02 06:57:32;;;;;;;8.80;1.00;;;;;;;;;;5037867;28;20041;-60
2021/04/02 07:00:00;;;;;;;7.95;1.50;;;;;;;;;;5039622;28;20038;-59
2021/04/02 07:02:27;;;;;;;1.65;0.90;;;;;;;;;;5037336;28;20048;-59
2021/04/02 07:04:54;;;;;;;5.75;1.23;;;;;;;;;;5041647;28;20041;-60
2021/04/02 07:07:20;;;;;;;10.20;1.58;;;;;;;;;;5039572;28;20037;-59
2021/04/02 07:09:47;;;;;;;8.88;1.42;;;;;;;;;;5043608;28;20066;-60
2021/04/02 07:12:13;;;;;;;6.65;1.40;;;;;;;;;;5036772;28;20037;-59
2021/04/02 07:14:40;;;;;;;3.40;0.52;;;;;;;;;;5054608;28;20048;-59
2021/04/02 07:17:07;;;;;;;4.53;1.15;;;;;;;;;;5042583;28;20048;-55
2021/04/02 07:19:34;;;;;;;5.70;0.93;;;;;;;;;;5037977;28;20099;-58
2021/04/02 07:22:01;;;;;;;5.80;0.98;;;;;;;;;;5041293;28;20078;-60
2021/04/02 07:24:27;;;;;;;8.55;1.13;;;;;;;;;;5035760;28;20056;-57
2021/04/02 07:26:53;;;;;;;7.30;1.38;;;;;;;;;;5043085;28;20037;-60
2021/04/02 07:29:20;;;;;;;10.77;1.13;;;;;;;;;;5040316;28;20039;-58
2021/04/02 07:31:46;;;;;;;4.97;0.90;;;;;;;;;;5045276;28;20033;-58
2021/04/02 07:34:16;;;;;;;2.42;0.55;;;;;;;;;;5042738;28;20125;-59
2021/04/02 07:36:42;;;;;;;9.13;1.63;;;;;;;;;;5061712;28;20064;-58
2021/04/02 07:39:09;;;;;;;5.60;1.92;;;;;;;;;;5043342;28;20048;-58
2021/04/02 07:41:37;;;;;;;3.17;1.10;;;;;;;;;;5046330;28;20126;-59
2021/04/02 07:44:06;;;;;;;2.08;0.88;;;;;;;;;;5042598;28;20055;-59
2021/04/02 07:46:32;;;;;;;11.10;1.10;;;;;;;;;;5046235;28;20142;-58
2021/04/02 07:49:00;;;;;;;7.68;1.20;;;;;;;;;;5040552;28;20055;-58
2021/04/02 07:51:39;;;;;;;4.03;0.93;;;;;;;;;;5046496;28;20040;-60
2021/04/02 07:54:12;;;;;;;3.35;0.85;;;;;;;;;;5039493;28;20304;-60
2021/04/02 07:56:38;;;;;;;3.85;1.25;;;;;;;;;;5044825;28;20037;-55
2021/04/02 07:59:04;;;;;;;5.35;0.90;;;;;;;;;;5041566;28;20041;-56
2021/04/02 08:01:33;;;;;;;6.38;1.23;;;;;;;;;;5045016;28;20033;-59
2021/04/02 08:03:59;;;;;;;;;;;;;;;;;;5046359;28;20068;-59
2021/04/02 08:06:29;;;;;;;3.38;0.65;;;;;;;;;;5040981;28;19993;-60
2021/04/02 08:08:56;;;;;;;4.57;1.08;;;;;;;;;;5044210;28;20071;-58
2021/04/02 08:11:25;;;;;;;6.82;1.08;;;;;;;;;;5040639;28;20065;-60
2021/04/02 08:13:56;;;;;;;4.03;0.90;;;;;;;;;;5043312;28;20041;-59
2021/04/02 08:16:38;;;;;;;7.60;1.50;;;;;;;;;;5038334;28;20052;-57
2021/04/02 08:19:04;;;;;;;6.97;1.05;;;;;;;;;;5042971;28;20041;-60
2021/04/02 08:21:31;;;;;;;6.63;1.00;;;;;;;;;;5039707;28;20049;-58
2021/04/02 08:23:58;;;;;;;2.75;0.95;;;;;;;;;;5042872;28;20056;-60
2021/04/02 08:26:28;;;;;;;2.92;0.85;;;;;;;;;;5039218;28;20052;-59
2021/04/02 08:28:54;;;;;;;3.00;0.80;;;;;;;;;;5042970;28;20088;-60
2021/04/02 08:31:20;;;;;;;2.75;0.95;;;;;;;;;;5039333;28;20152;-60
2021/04/02 08:33:54;;;;;;;1.55;0.90;;;;;;;;;;5044683;28;20033;-55
2021/04/02 08:36:20;;;;;;;8.45;1.15;;;;;;;;;;5041189;28;20045;-60
2021/04/02 08:38:47;;;;;;;4.05;0.90;;;;;;;;;;5042029;28;20091;-59
2021/04/02 08:41:18;;;;;;;5.43;0.88;;;;;;;;;;5039033;28;20045;-60
2021/04/02 08:43:44;;;;;;;3.40;0.75;;;;;;;;;;5041646;28;20038;-58
2021/04/02 08:46:10;;;;;;;6.53;1.08;;;;;;;;;;5039799;28;20507;-55
2021/04/02 08:48:38;;;;;;;8.90;1.50;;;;;;;;;;5041666;28;20041;-58
2021/04/02 08:51:04;;;;;;;17.70;0.90;;;;;;;;;;5037428;28;20110;-58
2021/04/02 08:53:39;;;;;;;2.83;0.82;;;;;;;;;;5042535;28;20045;-59
2021/04/02 08:56:05;;;;;;;8.52;1.30;;;;;;;;;;5040918;28;20044;-60
2021/04/02 08:58:33;;;;;;;2.45;0.95;;;;;;;;;;5036384;28;20048;-60
2021/04/02 09:00:59;;;;;;;2.53;1.00;;;;;;;;;;5043132;28;20038;-59
2021/04/02 09:03:26;;;;;;;3.55;1.20;;;;;;;;;;5038068;28;20053;-60
2021/04/02 09:05:52;;;;;;;7.50;1.92;;;;;;;;;;5043221;28;20041;-56
2021/04/02 09:08:19;;;;;;;3.15;1.27;;;;;;;;;;5031179;28;20049;-56
2021/04/02 09:10:46;;;;;;;5.80;1.20;;;;;;;;;;5041177;28;20041;-58
2021/04/02 09:13:12;;;;;;;6.20;1.10;;;;;;;;;;5039433;28;20025;-59
2021/04/02 09:15:39;;;;;;;9.27;1.48;;;;;;;;;;5044598;28;20151;-59
2021/04/02 09:18:15;;;;;;;2.75;0.85;;;;;;;;;;5041640;28;20049;-59
2021/04/02 09:20:42;;;;;;;6.05;1.25;;;;;;;;;;5043028;28;20036;-59
2021/04/02 09:23:09;;;;;;;6.60;1.05;;;;;;;;;;5043073;28;20033;-59
2021/04/02 09:25:38;;;;;;;3.53;0.88;;;;;;;;;;5052066;28;20125;-58
2021/04/02 09:28:05;;;;;;;10.00;1.10;;;;;;;;;;5056581;28;20045;-59
2021/04/02 09:30:31;;;;;;;8.10;1.30;;;;;;;;;;5046529;28;20029;-60
2021/04/02 09:33:01;;;;;;;3.55;1.10;;;;;;;;;;5042313;28;20041;-59
2021/04/02 09:35:27;;;;;;;9.98;2.10;;;;;;;;;;5045348;28;20064;-60
2021/04/02 09:37:53;;;;;;;6.15;1.45;;;;;;;;;;5040781;28;20048;-59
2021/04/02 09:40:26;;;;;;;6.38;1.00;;;;;;;;;;5042726;28;20028;-58
2021/04/02 09:42:53;;;;;;;10.50;1.27;;;;;;;;;;5042893;28;20033;-57
2021/04/02 09:45:19;;;;;;;6.53;1.25;;;;;;;;;;5049925;28;20045;-59
2021/04/02 09:47:46;;;;;;;10.25;1.40;;;;;;;;;;5043702;28;20079;-58
2021/04/02 09:50:14;;;;;;;7.40;1.15;;;;;;;;;;5057661;28;20056;-59
2021/04/02 09:52:42;;;;;;;8.48;1.42;;;;;;;;;;5043418;28;20146;-56
2021/04/02 09:55:09;;;;;;;15.00;1.50;;;;;;;;;;5038341;28;20068;-58
2021/04/02 09:57:35;;;;;;;7.40;1.20;;;;;;;;;;5063834;28;20043;-57
2021/04/02 10:00:01;;;;;;;10.50;1.35;;;;;;;;;;5040964;28;20049;-58
2021/04/02 10:02:28;;;;;;;10.00;1.60;;;;;;;;;;5046297;28;20122;-60
2021/04/02 10:04:54;;;;;;;5.57;1.00;;;;;;;;;;5043578;28;20052;-59
2021/04/02 10:07:21;;;;;;;4.88;1.20;;;;;;;;;;5063080;28;20037;-60
2021/04/02 10:09:48;;;;;;;6.68;1.02;;;;;;;;;;5040721;28;20052;-59
2021/04/02 10:12:14;;;;;;;18.52;1.92;;;;;;;;;;5044659;28;20047;-54
2021/04/02 10:14:40;;;;;;;14.98;2.00;;;;;;;;;;5035943;28;20041;-60
2021/04/02 10:17:11;;;;;;;5.90;1.48;;;;;;;;;;5039752;28;20048;-59
2021/04/02 10:19:37;;;;;;;5.90;1.60;;;;;;;;;;5037251;28;20041;-60
2021/04/02 10:22:03;;;;;;;5.78;1.35;;;;;;;;;;5041193;28;20091;-59
2021/04/02 10:24:31;;;;;;;10.45;1.70;;;;;;;;;;5041416;28;20045;-59
2021/04/02 10:26:58;;;;;;;8.75;1.90;;;;;;;;;;5033791;28;20046;-55
2021/04/02 10:29:24;;;;;;;6.70;1.63;;;;;;;;;;5022269;28;20041;-59
2021/04/02 10:31:50;;;;;;;9.23;1.65;;;;;;;;;;5033043;28;20042;-59
2021/04/02 10:34:17;;;;;;;8.85;1.73;;;;;;;;;;5041059;28;20049;-58
2021/04/02 10:36:43;;;;;;;14.65;1.30;;;;;;;;;;5037230;28;20045;-57
2021/04/02 10:39:09;;;;;;;11.88;1.33;;;;;;;;;;5040563;28;20037;-59
2021/04/02 10:41:37;;;;;;;3.78;1.40;;;;;;;;;;5037432;28;20052;-59
2021/04/02 10:44:03;;;;;;;10.67;1.40;;;;;;;;;;5040312;28;20045;-57
2021/04/02 10:46:29;;;;;;;4.97;1.40;;;;;;;;;;5036462;28;20289;-60
2021/04/02 10:48:58;;;;;;;9.65;1.63;;;;;;;;;;5040675;28;20037;-59
2021/04/02 10:51:25;;;;;;;16.77;1.40;;;;;;;;;;5035281;28;20037;-56
2021/04/02 10:53:52;;;;;;;7.05;1.52;;;;;;;;;;5040787;28;20057;-60
2021/04/02 10:56:18;;;;;;;10.20;1.60;;;;;;;;;;5035750;28;20111;-59
2021/04/02 10:58:45;;;;;;;15.30;2.00;;;;;;;;;;5041518;28;20044;-58
2021/04/02 11:01:11;;;;;;;8.02;1.83;;;;;;;;;;5038146;28;20048;-57
2021/04/02 11:03:37;;;;;;;6.43;1.27;;;;;;;;;;5038983;28;20115;-56
2021/04/02 11:06:03;;;;;;;8.00;1.30;;;;;;;;;;5041490;28;20179;-59
2021/04/02 11:08:29;;;;;;;6.50;1.25;;;;;;;;;;5035810;28;20064;-57
2021/04/02 11:10:56;;;;;;;5.20;1.00;;;;;;;;;;5039595;28;20037;-60
2021/04/02 11:13:22;;;;;;;9.32;1.40;;;;;;;;;;5037849;28;20053;-58
2021/04/02 11:15:48;;;;;;;6.28;1.20;;;;;;;;;;5041957;28;20045;-60
2021/04/02 11:18:14;;;;;;;8.75;1.15;;;;;;;;;;5038308;28;20051;-60
2021/04/02 11:20:40;;;;;;;5.78;1.40;;;;;;;;;;5044033;28;20044;-60
2021/04/02 11:23:06;;;;;;;17.13;1.58;;;;;;;;;;5039877;28;20044;-58
2021/04/02 11:25:33;;;;;;;11.48;1.55;;;;;;;;;;5043625;28;20055;-58
2021/04/02 11:27:59;;;;;;;7.47;1.10;;;;;;;;;;5039590;28;20051;-56
2021/04/02 11:30:25;;;;;;;8.20;1.45;;;;;;;;;;5044174;28;20085;-60
2021/04/02 11:32:53;;;;;;;10.45;0.90;;;;;;;;;;5041801;28;20041;-59
2021/04/02 11:35:19;;;;;;;5.72;1.00;;;;;;;;;;5058923;28;20049;-59
2021/04/02 11:37:45;;;;;;;4.03;0.88;;;;;;;;;;5057920;28;20049;-59
2021/04/02 11:40:12;;;;;;;3.35;1.00;;;;;;;;;;5042621;28;20052;-59
2021/04/02 11:42:39;;;;;;;5.22;1.30;;;;;;;;;;5043628;28;20032;-58
2021/04/02 11:45:05;;;;;;;7.75;1.48;;;;;;;;;;5040380;28;20088;-58
2021/04/02 11:47:32;;;;;;;6.10;1.10;;;;;;;;;;5034633;28;20058;-59
2021/04/02 11:49:58;;;;;;;4.85;0.90;;;;;;;;;;5040269;28;20114;-58
2021/04/02 11:52:26;;;;;;;2.50;0.80;;;;;;;;;;5041878;28;20101;-61
2021/04/02 11:54:52;;;;;;;4.50;0.95;;;;;;;;;;5039135;28;20048;-60
2021/04/02 11:57:18;;;;;;;3.38;1.00;;;;;;;;;;5041071;28;20041;-59
2021/04/02 11:59:44;;;;;;;5.28;1.25;;;;;;;;;;5039105;28;20092;-58
2021/04/02 12:02:10;;;;;;;9.18;1.02;;;;;;;;;;5042808;28;20065;-59
2021/04/02 12:04:36;;;;;;;7.90;1.02;;;;;;;;;;5038445;28;20052;-61
2021/04/02 12:07:03;;;;;;;8.02;1.20;;;;;;;;;;5042207;28;20041;-60
2021/04/02 12:09:29;;;;;;;5.07;1.27;;;;;;;;;;5039469;28;20090;-61
2021/04/02 12:11:55;;;;;;;15.52;1.58;;;;;;;;;;5042188;28;20060;-60
2021/04/02 12:14:21;;;;;;;5.65;1.20;;;;;;;;;;5039048;28;20045;-60
2021/04/02 12:16:47;;;;;;;10.70;1.27;;;;;;;;;;5041978;28;20047;-59
2021/04/02 12:19:13;;;;;;;4.78;1.38;;;;;;;;;;5041647;28;20040;-58
2021/04/02 12:21:40;;;;;;;14.90;1.38;;;;;;;;;;5063804;28;20037;-57
2021/04/02 12:24:08;;;;;;;5.10;1.02;;;;;;;;;;5043964;28;20117;-56
2021/04/02 12:26:34;;;;;;;4.13;1.00;;;;;;;;;;5042505;28;20048;-57
2021/04/02 12:29:01;;;;;;;15.20;1.73;;;;;;;;;;5045715;28;20041;-60
2021/04/02 12:31:27;;;;;;;8.50;1.60;;;;;;;;;;5040163;28;20045;-60
2021/04/02 12:33:53;;;;;;;7.20;1.13;;;;;;;;;;5045252;28;20133;-59
2021/04/02 12:36:20;;;;;;;6.00;1.17;;;;;;;;;;5039968;28;20049;-60
2021/04/02 12:38:46;;;;;;;11.38;1.02;;;;;;;;;;5028125;28;20052;-60
2021/04/02 12:41:13;;;;;;;3.72;1.20;;;;;;;;;;5041436;28;20045;-60
2021/04/02 12:43:39;;;;;;;7.25;1.45;;;;;;;;;;5045560;28;20049;-61
2021/04/02 12:46:05;;;;;;;6.70;1.33;;;;;;;;;;5041412;28;20078;-55
2021/04/02 12:48:31;;;;;;;8.98;1.17;;;;;;;;;;5043575;28;20060;-59
2021/04/02 12:50:58;;;;;;;9.82;1.58;;;;;;;;;;5041037;28;20048;-61
2021/04/02 12:53:24;;;;;;;4.78;1.20;;;;;;;;;;5062986;28;20055;-59
2021/04/02 12:55:50;;;;;;;9.75;1.23;;;;;;;;;;5040618;28;20220;-59
2021/04/02 12:58:17;;;;;;;8.32;1.20;;;;;;;;;;5045113;28;20053;-60
2021/04/02 13:00:44;;;;;;;9.38;1.52;;;;;;;;;;5061099;28;20110;-57
2021/04/02 13:03:10;;;;;;;5.72;1.98;;;;;;;;;;5062309;28;20044;-59
2021/04/02 13:05:36;;;;;;;12.88;1.95;;;;;;;;;;5062697;28;20137;-60
2021/04/02 13:08:30;;;;;;;9.48;1.80;;;;;;;;;;5042642;28;20037;-58
2021/04/02 13:10:56;;;;;;;9.43;1.27;;;;;;;;;;5043333;28;20049;-61
2021/04/02 13:13:24;;;;;;;5.47;1.15;;;;;;;;;;5039360;28;20085;-57
2021/04/02 13:15:50;;;;;;;6.40;1.50;;;;;;;;;;5044960;28;20048;-61
2021/04/02 13:18:15;;;;;;;11.73;2.15;;;;;;;;;;5040891;28;20049;-60
2021/04/02 13:20:41;;;;;;;6.40;1.17;;;;;;;;;;5045384;28;20040;-60
2021/04/02 13:23:07;;;;;;;5.63;1.10;;;;;;;;;;5039785;28;20073;-60
2021/04/02 13:25:33;;;;;;;9.88;1.35;;;;;;;;;;5051739;28;20052;-59
2021/04/02 13:27:59;;;;;;;6.20;1.02;;;;;;;;;;5050674;28;20060;-59
2021/04/02 13:30:26;;;;;;;4.53;1.30;;;;;;;;;;5044453;28;20037;-60
2021/04/02 13:32:53;;;;;;;6.18;1.30;;;;;;;;;;5041329;28;20049;-58
2021/04/02 13:35:20;;;;;;;9.55;1.38;;;;;;;;;;5042977;28;20114;-61
2021/04/02 13:37:46;;;;;;;1.98;0.65;;;;;;;;;;5039730;28;20138;-62
2021/04/02 13:40:13;;;;;;;9.85;1.35;;;;;;;;;;5044734;28;20200;-60
2021/04/02 13:42:40;;;;;;;3.55;1.17;;;;;;;;;;5041158;28;20048;-58
2021/04/02 13:45:07;;;;;;;8.57;1.48;;;;;;;;;;5044444;28;20037;-59
2021/04/02 13:47:34;;;;;;;10.63;1.30;;;;;;;;;;5041898;28;20044;-60
2021/04/02 13:50:00;;;;;;;8.65;1.35;;;;;;;;;;5043022;28;20040;-59
2021/04/02 13:52:26;;;;;;;6.22;1.98;;;;;;;;;;5044508;28;20052;-60
2021/04/02 13:54:52;;;;;;;3.85;1.00;;;;;;;;;;5041996;28;20163;-59
2021/04/02 13:57:18;;;;;;;3.38;1.10;;;;;;;;;;5052083;28;20045;-60
2021/04/02 13:59:44;;;;;;;8.00;1.52;;;;;;;;;;5041177;28;20088;-60
2021/04/02 14:02:10;;;;;;;5.60;1.10;;;;;;;;;;5044943;28;20151;-61
2021/04/02 14:04:37;;;;;;;7.93;1.60;;;;;;;;;;5040573;28;20045;-59
2021/04/02 14:07:03;;;;;;;4.75;1.00;;;;;;;;;;5042597;28;20051;-62
2021/04/02 14:09:30;;;;;;;7.47;1.42;;;;;;;;;;5041972;28;20028;-61
2021/04/02 14:11:56;;;;;;;5.10;1.35;;;;;;;;;;5043665;28;20041;-61
2021/04/02 14:14:22;;;;;;;2.90;0.82;;;;;;;;;;5037478;28;20040;-61
2021/04/02 14:16:48;;;;;;;7.72;1.27;;;;;;;;;;5041111;28;20041;-61
2021/04/02 14:19:15;;;;;;;5.32;1.02;;;;;;;;;;5036827;28;20037;-57
2021/04/02 14:21:41;;;;;;;6.22;1.10;;;;;;;;;;5041296;28;20045;-61
2021/04/02 14:24:08;;;;;;;4.22;1.15;;;;;;;;;;5036434;28;20041;-62
2021/04/02 14:26:35;;;;;;;3.88;1.30;;;;;;;;;;5040951;28;20059;-61
2021/04/02 14:29:02;;;;;;;11.48;1.67;;;;;;;;;;5041077;28;20033;-62
2021/04/02 14:31:28;;;;;;;7.72;1.20;;;;;;;;;;5031892;28;20077;-61
2021/04/02 14:33:54;;;;;;;9.65;1.00;;;;;;;;;;5020784;28;20388;-60
2021/04/02 14:36:22;;;;;;;6.82;1.27;;;;;;;;;;5032455;28;20045;-60
2021/04/02 14:38:49;;;;;;;4.18;1.15;;;;;;;;;;5040303;28;20033;-55
2021/04/02 14:41:15;;;;;;;7.90;1.10;;;;;;;;;;5035515;28;20057;-60
2021/04/02 14:43:41;;;;;;;3.35;0.90;;;;;;;;;;5038736;28;20121;-57